sensor_id;sensor_type;location;lat;lon;timestamp;P1;durP1;ratioP1;P2;durP2;ratioP2
59127;SDS011;44912;52.754;5.994;2022-07-01T00:01:31;4.72;;;1.95;;
59127;SDS011;44912;52.754;5.994;2022-07-01T00:03:57;3.75;;;1.80;;
59127;SDS011;44912;52.754;5.994;2022-07-01T00:06:24;6.53;;;2.25;;
59127;SDS011;44912;52.754;5.994;2022-07-01T00:08:50;4.72;;;2.10;;
59127;SDS011;44912;52.754;5.994;2022-07-01T00:11:16;4.22;;;2.08;;
59127;SDS011;44912;52.754;5.994;2022-07-01T00:13:41;5.22;;;2.25;;
59127;SDS011;44912;52.754;5.994;2022-07-01T00:16:07;4.15;;;2.20;;
59127;SDS011;44912;52.754;5.994;2022-07-01T00:18:33;5.63;;;2.28;;
59127;SDS011;44912;52.754;5.994;2022-07-01T00:20:58;4.38;;;1.90;;
59127;SDS011;44912;52.754;5.994;2022-07-01T00:23:26;3.40;;;1.63;;
59127;SDS011;44912;52.754;5.994;2022-07-01T00:25:52;3.63;;;1.83;;
59127;SDS011;44912;52.754;5.994;2022-07-01T00:28:17;3.95;;;1.70;;
59127;SDS011;44912;52.754;5.994;2022-07-01T00:30:43;4.05;;;1.80;;
59127;SDS011;44912;52.754;5.994;2022-07-01T00:33:09;2.55;;;1.65;;
59127;SDS011;44912;52.754;5.994;2022-07-01T00:35:34;4.65;;;1.88;;
59127;SDS011;44912;52.754;5.994;2022-07-01T00:38:00;2.78;;;1.45;;
59127;SDS011;44912;52.754;5.994;2022-07-01T00:40:25;5.38;;;1.50;;
59127;SDS011;44912;52.754;5.994;2022-07-01T00:42:51;2.85;;;1.42;;
59127;SDS011;44912;52.754;5.994;2022-07-01T00:45:17;3.03;;;1.40;;
59127;SDS011;44912;52.754;5.994;2022-07-01T00:47:43;1.75;;;1.20;;
59127;SDS011;44912;52.754;5.994;2022-07-01T00:50:11;3.92;;;1.42;;
59127;SDS011;44912;52.754;5.994;2022-07-01T00:52:38;3.08;;;1.38;;
59127;SDS011;44912;52.754;5.994;2022-07-01T00:55:05;4.95;;;1.60;;
59127;SDS011;44912;52.754;5.994;2022-07-01T00:57:34;3.67;;;1.45;;
59127;SDS011;44912;52.754;5.994;2022-07-01T01:00:20;4.13;;;1.90;;
59127;SDS011;44912;52.754;5.994;2022-07-01T01:02:49;3.33;;;1.77;;
59127;SDS011;44912;52.754;5.994;2022-07-01T01:05:15;4.75;;;2.10;;
59127;SDS011;44912;52.754;5.994;2022-07-01T01:07:42;5.00;;;2.10;;
59127;SDS011;44912;52.754;5.994;2022-07-01T01:10:08;5.68;;;2.30;;
59127;SDS011;44912;52.754;5.994;2022-07-01T01:12:34;5.47;;;2.72;;
59127;SDS011;44912;52.754;5.994;2022-07-01T01:15:00;4.70;;;2.72;;
59127;SDS011;44912;52.754;5.994;2022-07-01T01:17:26;5.22;;;2.67;;
59127;SDS011;44912;52.754;5.994;2022-07-01T01:19:52;6.63;;;3.20;;
59127;SDS011;44912;52.754;5.994;2022-07-01T01:22:19;6.88;;;3.55;;
59127;SDS011;44912;52.754;5.994;2022-07-01T01:24:45;6.38;;;3.63;;
59127;SDS011;44912;52.754;5.994;2022-07-01T01:27:12;7.70;;;3.80;;
59127;SDS011;44912;52.754;5.994;2022-07-01T01:29:39;6.95;;;4.10;;
59127;SDS011;44912;52.754;5.994;2022-07-01T01:32:05;6.40;;;4.15;;
59127;SDS011;44912;52.754;5.994;2022-07-01T01:34:32;9.25;;;4.30;;
59127;SDS011;44912;52.754;5.994;2022-07-01T01:36:58;7.05;;;4.10;;
59127;SDS011;44912;52.754;5.994;2022-07-01T01:39:24;8.23;;;4.72;;
59127;SDS011;44912;52.754;5.994;2022-07-01T01:41:50;7.60;;;5.10;;
59127;SDS011;44912;52.754;5.994;2022-07-01T01:44:15;8.15;;;4.90;;
59127;SDS011;44912;52.754;5.994;2022-07-01T01:46:41;7.82;;;5.10;;
59127;SDS011;44912;52.754;5.994;2022-07-01T01:49:06;9.05;;;5.97;;
59127;SDS011;44912;52.754;5.994;2022-07-01T01:51:32;11.45;;;7.10;;
59127;SDS011;44912;52.754;5.994;2022-07-01T01:53:58;11.82;;;7.10;;
59127;SDS011;44912;52.754;5.994;2022-07-01T01:56:25;12.75;;;7.53;;
59127;SDS011;44912;52.754;5.994;2022-07-01T01:58:51;11.80;;;8.23;;
59127;SDS011;44912;52.754;5.994;2022-07-01T02:01:18;11.48;;;7.40;;
59127;SDS011;44912;52.754;5.994;2022-07-01T02:03:44;10.52;;;6.85;;
59127;SDS011;44912;52.754;5.994;2022-07-01T02:06:12;10.20;;;6.88;;
59127;SDS011;44912;52.754;5.994;2022-07-01T02:08:38;16.63;;;7.50;;
59127;SDS011;44912;52.754;5.994;2022-07-01T02:11:05;11.63;;;6.57;;
59127;SDS011;44912;52.754;5.994;2022-07-01T02:13:30;9.52;;;6.22;;
59127;SDS011;44912;52.754;5.994;2022-07-01T02:15:56;10.77;;;7.05;;
59127;SDS011;44912;52.754;5.994;2022-07-01T02:18:22;12.00;;;7.50;;
59127;SDS011;44912;52.754;5.994;2022-07-01T02:20:48;11.85;;;7.85;;
59127;SDS011;44912;52.754;5.994;2022-07-01T02:23:14;11.82;;;7.65;;
59127;SDS011;44912;52.754;5.994;2022-07-01T02:25:40;12.38;;;7.88;;
59127;SDS011;44912;52.754;5.994;2022-07-01T02:28:06;11.77;;;7.07;;
59127;SDS011;44912;52.754;5.994;2022-07-01T02:30:32;10.90;;;7.53;;
59127;SDS011;44912;52.754;5.994;2022-07-01T02:33:01;12.65;;;8.82;;
59127;SDS011;44912;52.754;5.994;2022-07-01T02:35:27;14.32;;;9.77;;
59127;SDS011;44912;52.754;5.994;2022-07-01T02:37:53;17.23;;;11.77;;
59127;SDS011;44912;52.754;5.994;2022-07-01T02:40:18;18.27;;;12.65;;
59127;SDS011;44912;52.754;5.994;2022-07-01T02:42:44;20.25;;;13.60;;
59127;SDS011;44912;52.754;5.994;2022-07-01T02:45:11;19.77;;;14.35;;
59127;SDS011;44912;52.754;5.994;2022-07-01T02:47:38;24.58;;;16.08;;
59127;SDS011;44912;52.754;5.994;2022-07-01T02:50:06;24.08;;;17.05;;
59127;SDS011;44912;52.754;5.994;2022-07-01T02:52:34;24.48;;;17.15;;
59127;SDS011;44912;52.754;5.994;2022-07-01T02:55:01;26.20;;;19.23;;
59127;SDS011;44912;52.754;5.994;2022-07-01T02:57:27;26.95;;;19.20;;
59127;SDS011;44912;52.754;5.994;2022-07-01T02:59:52;32.58;;;20.25;;
59127;SDS011;44912;52.754;5.994;2022-07-01T03:02:19;33.17;;;20.88;;
59127;SDS011;44912;52.754;5.994;2022-07-01T03:04:45;28.70;;;21.70;;
59127;SDS011;44912;52.754;5.994;2022-07-01T03:07:11;31.73;;;22.48;;
59127;SDS011;44912;52.754;5.994;2022-07-01T03:09:37;33.42;;;24.00;;
59127;SDS011;44912;52.754;5.994;2022-07-01T03:12:05;34.72;;;22.77;;
59127;SDS011;44912;52.754;5.994;2022-07-01T03:14:50;32.47;;;23.35;;
59127;SDS011;44912;52.754;5.994;2022-07-01T03:17:16;36.78;;;24.58;;
59127;SDS011;44912;52.754;5.994;2022-07-01T03:19:42;33.35;;;24.77;;
59127;SDS011;44912;52.754;5.994;2022-07-01T03:22:07;36.28;;;25.98;;
59127;SDS011;44912;52.754;5.994;2022-07-01T03:24:33;35.95;;;25.33;;
59127;SDS011;44912;52.754;5.994;2022-07-01T03:26:59;34.38;;;24.95;;
59127;SDS011;44912;52.754;5.994;2022-07-01T03:29:24;32.47;;;23.85;;
59127;SDS011;44912;52.754;5.994;2022-07-01T03:31:50;37.58;;;25.63;;
59127;SDS011;44912;52.754;5.994;2022-07-01T03:34:15;39.53;;;25.55;;
59127;SDS011;44912;52.754;5.994;2022-07-01T03:36:41;36.10;;;25.83;;
59127;SDS011;44912;52.754;5.994;2022-07-01T03:39:06;37.03;;;26.60;;
59127;SDS011;44912;52.754;5.994;2022-07-01T03:41:32;36.25;;;26.23;;
59127;SDS011;44912;52.754;5.994;2022-07-01T03:43:57;38.78;;;27.10;;
59127;SDS011;44912;52.754;5.994;2022-07-01T03:46:23;39.13;;;25.98;;
59127;SDS011;44912;52.754;5.994;2022-07-01T03:48:49;39.63;;;26.63;;
59127;SDS011;44912;52.754;5.994;2022-07-01T03:51:14;38.17;;;26.65;;
59127;SDS011;44912;52.754;5.994;2022-07-01T03:53:40;41.72;;;29.02;;
59127;SDS011;44912;52.754;5.994;2022-07-01T03:56:24;41.70;;;28.00;;
59127;SDS011;44912;52.754;5.994;2022-07-01T03:58:51;41.42;;;27.65;;
59127;SDS011;44912;52.754;5.994;2022-07-01T04:01:17;41.60;;;27.75;;
59127;SDS011;44912;52.754;5.994;2022-07-01T04:03:43;44.78;;;29.52;;
59127;SDS011;44912;52.754;5.994;2022-07-01T04:06:08;43.08;;;29.73;;
59127;SDS011;44912;52.754;5.994;2022-07-01T04:08:36;46.60;;;30.42;;
59127;SDS011;44912;52.754;5.994;2022-07-01T04:11:04;42.97;;;28.90;;
59127;SDS011;44912;52.754;5.994;2022-07-01T04:13:33;45.25;;;30.38;;
59127;SDS011;44912;52.754;5.994;2022-07-01T04:15:59;47.30;;;30.80;;
59127;SDS011;44912;52.754;5.994;2022-07-01T04:18:26;47.17;;;30.95;;
59127;SDS011;44912;52.754;5.994;2022-07-01T04:20:52;45.08;;;30.50;;
59127;SDS011;44912;52.754;5.994;2022-07-01T04:23:36;43.10;;;30.48;;
59127;SDS011;44912;52.754;5.994;2022-07-01T04:26:02;45.13;;;31.27;;
59127;SDS011;44912;52.754;5.994;2022-07-01T04:28:28;44.97;;;31.02;;
59127;SDS011;44912;52.754;5.994;2022-07-01T04:30:56;44.83;;;31.13;;
59127;SDS011;44912;52.754;5.994;2022-07-01T04:33:22;44.15;;;29.73;;
59127;SDS011;44912;52.754;5.994;2022-07-01T04:35:47;43.15;;;30.08;;
59127;SDS011;44912;52.754;5.994;2022-07-01T04:38:13;41.60;;;30.17;;
59127;SDS011;44912;52.754;5.994;2022-07-01T04:40:38;41.65;;;29.92;;
59127;SDS011;44912;52.754;5.994;2022-07-01T04:43:04;43.83;;;30.60;;
59127;SDS011;44912;52.754;5.994;2022-07-01T04:45:29;40.70;;;30.33;;
59127;SDS011;44912;52.754;5.994;2022-07-01T04:47:55;39.60;;;29.70;;
59127;SDS011;44912;52.754;5.994;2022-07-01T04:50:20;39.20;;;30.20;;
59127;SDS011;44912;52.754;5.994;2022-07-01T04:52:46;40.38;;;29.63;;
59127;SDS011;44912;52.754;5.994;2022-07-01T04:55:12;38.58;;;30.33;;
59127;SDS011;44912;52.754;5.994;2022-07-01T04:57:37;40.00;;;29.90;;
59127;SDS011;44912;52.754;5.994;2022-07-01T05:00:03;38.95;;;29.98;;
59127;SDS011;44912;52.754;5.994;2022-07-01T05:02:29;36.90;;;28.52;;
59127;SDS011;44912;52.754;5.994;2022-07-01T05:04:54;43.15;;;31.30;;
59127;SDS011;44912;52.754;5.994;2022-07-01T05:07:20;39.08;;;28.67;;
59127;SDS011;44912;52.754;5.994;2022-07-01T05:09:55;37.40;;;29.15;;
59127;SDS011;44912;52.754;5.994;2022-07-01T05:12:21;39.83;;;29.80;;
59127;SDS011;44912;52.754;5.994;2022-07-01T05:14:47;38.63;;;29.33;;
59127;SDS011;44912;52.754;5.994;2022-07-01T05:17:14;41.05;;;29.33;;
59127;SDS011;44912;52.754;5.994;2022-07-01T05:19:39;40.78;;;29.42;;
59127;SDS011;44912;52.754;5.994;2022-07-01T05:22:23;36.97;;;29.13;;
59127;SDS011;44912;52.754;5.994;2022-07-01T05:24:49;37.08;;;28.10;;
59127;SDS011;44912;52.754;5.994;2022-07-01T05:27:14;33.08;;;27.38;;
59127;SDS011;44912;52.754;5.994;2022-07-01T05:29:40;35.35;;;27.75;;
59127;SDS011;44912;52.754;5.994;2022-07-01T05:32:06;33.65;;;27.35;;
59127;SDS011;44912;52.754;5.994;2022-07-01T05:34:31;35.22;;;28.23;;
59127;SDS011;44912;52.754;5.994;2022-07-01T05:36:57;32.05;;;26.75;;
59127;SDS011;44912;52.754;5.994;2022-07-01T05:39:22;33.67;;;26.33;;
59127;SDS011;44912;52.754;5.994;2022-07-01T05:41:48;36.15;;;26.33;;
59127;SDS011;44912;52.754;5.994;2022-07-01T05:44:14;32.00;;;26.48;;
59127;SDS011;44912;52.754;5.994;2022-07-01T05:46:39;32.15;;;25.38;;
59127;SDS011;44912;52.754;5.994;2022-07-01T05:49:05;31.95;;;25.15;;
59127;SDS011;44912;52.754;5.994;2022-07-01T05:51:31;31.27;;;24.98;;
59127;SDS011;44912;52.754;5.994;2022-07-01T05:53:57;33.47;;;24.55;;
59127;SDS011;44912;52.754;5.994;2022-07-01T05:56:23;29.55;;;23.98;;
59127;SDS011;44912;52.754;5.994;2022-07-01T05:58:50;33.65;;;23.80;;
59127;SDS011;44912;52.754;5.994;2022-07-01T06:01:16;29.98;;;23.23;;
59127;SDS011;44912;52.754;5.994;2022-07-01T06:03:44;28.55;;;23.08;;
59127;SDS011;44912;52.754;5.994;2022-07-01T06:06:09;30.27;;;23.70;;
59127;SDS011;44912;52.754;5.994;2022-07-01T06:08:35;27.95;;;21.48;;
59127;SDS011;44912;52.754;5.994;2022-07-01T06:11:00;26.75;;;21.48;;
59127;SDS011;44912;52.754;5.994;2022-07-01T06:13:29;28.52;;;21.33;;
59127;SDS011;44912;52.754;5.994;2022-07-01T06:15:54;25.02;;;20.40;;
59127;SDS011;44912;52.754;5.994;2022-07-01T06:18:23;27.55;;;20.55;;
59127;SDS011;44912;52.754;5.994;2022-07-01T06:20:49;26.50;;;21.38;;
59127;SDS011;44912;52.754;5.994;2022-07-01T06:23:14;27.40;;;20.80;;
59127;SDS011;44912;52.754;5.994;2022-07-01T06:25:40;26.85;;;20.42;;
59127;SDS011;44912;52.754;5.994;2022-07-01T06:28:05;26.60;;;20.90;;
59127;SDS011;44912;52.754;5.994;2022-07-01T06:30:34;27.60;;;21.77;;
59127;SDS011;44912;52.754;5.994;2022-07-01T06:32:59;27.75;;;21.63;;
59127;SDS011;44912;52.754;5.994;2022-07-01T06:35:25;29.88;;;21.50;;
59127;SDS011;44912;52.754;5.994;2022-07-01T06:37:50;30.27;;;22.15;;
59127;SDS011;44912;52.754;5.994;2022-07-01T06:40:16;26.80;;;22.63;;
59127;SDS011;44912;52.754;5.994;2022-07-01T06:42:42;26.17;;;22.17;;
59127;SDS011;44912;52.754;5.994;2022-07-01T06:45:07;28.90;;;22.80;;
59127;SDS011;44912;52.754;5.994;2022-07-01T06:47:33;27.02;;;23.08;;
59127;SDS011;44912;52.754;5.994;2022-07-01T06:50:01;28.65;;;23.58;;
59127;SDS011;44912;52.754;5.994;2022-07-01T06:52:29;30.02;;;23.58;;
59127;SDS011;44912;52.754;5.994;2022-07-01T06:54:54;30.00;;;23.17;;
59127;SDS011;44912;52.754;5.994;2022-07-01T06:57:20;31.98;;;23.38;;
59127;SDS011;44912;52.754;5.994;2022-07-01T06:59:45;29.67;;;23.00;;
59127;SDS011;44912;52.754;5.994;2022-07-01T07:02:11;32.75;;;24.08;;
59127;SDS011;44912;52.754;5.994;2022-07-01T07:04:36;31.17;;;24.58;;
59127;SDS011;44912;52.754;5.994;2022-07-01T07:07:02;30.20;;;24.15;;
59127;SDS011;44912;52.754;5.994;2022-07-01T07:09:28;29.38;;;24.17;;
59127;SDS011;44912;52.754;5.994;2022-07-01T07:11:53;28.35;;;23.15;;
59127;SDS011;44912;52.754;5.994;2022-07-01T07:14:19;30.73;;;23.60;;
59127;SDS011;44912;52.754;5.994;2022-07-01T07:16:45;26.88;;;23.00;;
59127;SDS011;44912;52.754;5.994;2022-07-01T07:19:10;29.88;;;23.40;;
59127;SDS011;44912;52.754;5.994;2022-07-01T07:21:36;25.23;;;21.90;;
59127;SDS011;44912;52.754;5.994;2022-07-01T07:24:02;30.73;;;23.00;;
59127;SDS011;44912;52.754;5.994;2022-07-01T07:26:27;29.48;;;22.67;;
59127;SDS011;44912;52.754;5.994;2022-07-01T07:28:53;29.35;;;23.67;;
59127;SDS011;44912;52.754;5.994;2022-07-01T07:31:18;28.40;;;23.52;;
59127;SDS011;44912;52.754;5.994;2022-07-01T07:33:44;26.58;;;22.20;;
59127;SDS011;44912;52.754;5.994;2022-07-01T07:36:10;28.45;;;22.65;;
59127;SDS011;44912;52.754;5.994;2022-07-01T07:38:39;25.35;;;22.65;;
59127;SDS011;44912;52.754;5.994;2022-07-01T07:41:04;27.98;;;22.90;;
59127;SDS011;44912;52.754;5.994;2022-07-01T07:43:30;26.00;;;20.85;;
59127;SDS011;44912;52.754;5.994;2022-07-01T07:45:56;27.75;;;22.15;;
59127;SDS011;44912;52.754;5.994;2022-07-01T07:48:21;25.17;;;21.17;;
59127;SDS011;44912;52.754;5.994;2022-07-01T07:50:47;25.27;;;20.42;;
59127;SDS011;44912;52.754;5.994;2022-07-01T07:53:13;26.38;;;20.80;;
59127;SDS011;44912;52.754;5.994;2022-07-01T07:55:38;24.70;;;20.67;;
59127;SDS011;44912;52.754;5.994;2022-07-01T07:58:05;23.15;;;19.08;;
59127;SDS011;44912;52.754;5.994;2022-07-01T08:00:31;24.27;;;19.40;;
59127;SDS011;44912;52.754;5.994;2022-07-01T08:02:56;24.05;;;20.23;;
59127;SDS011;44912;52.754;5.994;2022-07-01T08:05:22;24.95;;;19.90;;
59127;SDS011;44912;52.754;5.994;2022-07-01T08:07:47;22.77;;;18.23;;
59127;SDS011;44912;52.754;5.994;2022-07-01T08:10:13;22.17;;;19.13;;
59127;SDS011;44912;52.754;5.994;2022-07-01T08:12:39;21.58;;;18.08;;
59127;SDS011;44912;52.754;5.994;2022-07-01T08:15:05;19.63;;;17.48;;
59127;SDS011;44912;52.754;5.994;2022-07-01T08:17:31;22.50;;;18.25;;
59127;SDS011;44912;52.754;5.994;2022-07-01T08:19:57;18.13;;;14.15;;
59127;SDS011;44912;52.754;5.994;2022-07-01T08:22:23;18.25;;;14.60;;
59127;SDS011;44912;52.754;5.994;2022-07-01T08:24:48;21.52;;;15.60;;
59127;SDS011;44912;52.754;5.994;2022-07-01T08:27:14;17.73;;;15.30;;
59127;SDS011;44912;52.754;5.994;2022-07-01T08:29:40;21.75;;;15.05;;
59127;SDS011;44912;52.754;5.994;2022-07-01T08:32:06;19.77;;;15.38;;
59127;SDS011;44912;52.754;5.994;2022-07-01T08:34:32;18.58;;;13.95;;
59127;SDS011;44912;52.754;5.994;2022-07-01T08:37:01;16.38;;;13.02;;
59127;SDS011;44912;52.754;5.994;2022-07-01T08:39:29;16.77;;;13.13;;
59127;SDS011;44912;52.754;5.994;2022-07-01T08:41:55;17.67;;;12.82;;
59127;SDS011;44912;52.754;5.994;2022-07-01T08:44:21;17.80;;;14.48;;
59127;SDS011;44912;52.754;5.994;2022-07-01T08:46:47;18.48;;;12.80;;
59127;SDS011;44912;52.754;5.994;2022-07-01T08:49:12;18.33;;;11.10;;
59127;SDS011;44912;52.754;5.994;2022-07-01T08:51:38;14.35;;;11.27;;
59127;SDS011;44912;52.754;5.994;2022-07-01T08:54:04;14.23;;;10.15;;
59127;SDS011;44912;52.754;5.994;2022-07-01T08:56:29;13.02;;;9.80;;
59127;SDS011;44912;52.754;5.994;2022-07-01T08:59:08;15.07;;;9.70;;
59127;SDS011;44912;52.754;5.994;2022-07-01T09:01:35;15.82;;;8.40;;
59127;SDS011;44912;52.754;5.994;2022-07-01T09:04:14;13.43;;;7.25;;
59127;SDS011;44912;52.754;5.994;2022-07-01T09:06:42;9.98;;;6.25;;
59127;SDS011;44912;52.754;5.994;2022-07-01T09:09:17;12.23;;;7.28;;
59127;SDS011;44912;52.754;5.994;2022-07-01T09:11:49;10.20;;;7.22;;
59127;SDS011;44912;52.754;5.994;2022-07-01T09:14:24;10.85;;;6.40;;
59127;SDS011;44912;52.754;5.994;2022-07-01T09:16:53;12.27;;;6.65;;
59127;SDS011;44912;52.754;5.994;2022-07-01T09:19:26;8.77;;;4.30;;
59127;SDS011;44912;52.754;5.994;2022-07-01T09:21:56;12.95;;;5.65;;
59127;SDS011;44912;52.754;5.994;2022-07-01T09:24:28;11.50;;;5.10;;
59127;SDS011;44912;52.754;5.994;2022-07-01T09:27:04;10.00;;;5.03;;
59127;SDS011;44912;52.754;5.994;2022-07-01T09:29:39;10.55;;;5.20;;
59127;SDS011;44912;52.754;5.994;2022-07-01T09:32:09;8.85;;;4.70;;
59127;SDS011;44912;52.754;5.994;2022-07-01T09:34:40;11.07;;;5.30;;
59127;SDS011;44912;52.754;5.994;2022-07-01T09:37:11;9.23;;;4.10;;
59127;SDS011;44912;52.754;5.994;2022-07-01T09:39:54;8.93;;;4.47;;
59127;SDS011;44912;52.754;5.994;2022-07-01T09:42:21;9.20;;;4.80;;
59127;SDS011;44912;52.754;5.994;2022-07-01T09:47:25;11.10;;;4.68;;
59127;SDS011;44912;52.754;5.994;2022-07-01T09:49:55;7.15;;;3.17;;
59127;SDS011;44912;52.754;5.994;2022-07-01T09:52:21;7.22;;;2.70;;
59127;SDS011;44912;52.754;5.994;2022-07-01T09:54:48;6.00;;;2.70;;
59127;SDS011;44912;52.754;5.994;2022-07-01T09:57:15;9.13;;;2.78;;
59127;SDS011;44912;52.754;5.994;2022-07-01T09:59:44;7.43;;;2.70;;
59127;SDS011;44912;52.754;5.994;2022-07-01T10:02:11;9.88;;;3.08;;
59127;SDS011;44912;52.754;5.994;2022-07-01T10:04:38;7.05;;;2.63;;
59127;SDS011;44912;52.754;5.994;2022-07-01T10:07:07;5.65;;;2.35;;
59127;SDS011;44912;52.754;5.994;2022-07-01T10:09:47;7.40;;;1.92;;
59127;SDS011;44912;52.754;5.994;2022-07-01T10:14:50;7.63;;;2.10;;
59127;SDS011;44912;52.754;5.994;2022-07-01T10:17:30;6.32;;;1.70;;
59127;SDS011;44912;52.754;5.994;2022-07-01T10:20:06;6.68;;;1.90;;
59127;SDS011;44912;52.754;5.994;2022-07-01T10:22:42;6.15;;;1.75;;
59127;SDS011;44912;52.754;5.994;2022-07-01T10:30:58;5.05;;;1.73;;
59127;SDS011;44912;52.754;5.994;2022-07-01T10:33:27;4.22;;;1.80;;
59127;SDS011;44912;52.754;5.994;2022-07-01T10:35:53;8.05;;;2.25;;
59127;SDS011;44912;52.754;5.994;2022-07-01T10:38:18;5.63;;;1.95;;
59127;SDS011;44912;52.754;5.994;2022-07-01T10:40:44;4.70;;;1.60;;
59127;SDS011;44912;52.754;5.994;2022-07-01T10:43:16;7.43;;;1.60;;
59127;SDS011;44912;52.754;5.994;2022-07-01T10:45:56;5.88;;;1.70;;
59127;SDS011;44912;52.754;5.994;2022-07-01T10:48:22;4.85;;;1.35;;
59127;SDS011;44912;52.754;5.994;2022-07-01T10:50:49;4.05;;;1.05;;
59127;SDS011;44912;52.754;5.994;2022-07-01T10:53:16;3.08;;;0.90;;
59127;SDS011;44912;52.754;5.994;2022-07-01T10:55:46;2.05;;;0.70;;
59127;SDS011;44912;52.754;5.994;2022-07-01T10:58:13;4.25;;;1.20;;
59127;SDS011;44912;52.754;5.994;2022-07-01T11:00:41;4.57;;;1.23;;
59127;SDS011;44912;52.754;5.994;2022-07-01T11:05:38;4.43;;;1.00;;
59127;SDS011;44912;52.754;5.994;2022-07-01T11:08:05;3.22;;;0.80;;
59127;SDS011;44912;52.754;5.994;2022-07-01T11:10:31;2.03;;;0.90;;
59127;SDS011;44912;52.754;5.994;2022-07-01T11:12:57;3.88;;;1.02;;
59127;SDS011;44912;52.754;5.994;2022-07-01T11:15:26;3.38;;;0.90;;
59127;SDS011;44912;52.754;5.994;2022-07-01T11:17:54;3.08;;;1.00;;
59127;SDS011;44912;52.754;5.994;2022-07-01T11:20:24;5.20;;;0.90;;
59127;SDS011;44912;52.754;5.994;2022-07-01T11:22:51;3.53;;;0.80;;
59127;SDS011;44912;52.754;5.994;2022-07-01T11:25:17;4.72;;;1.02;;
59127;SDS011;44912;52.754;5.994;2022-07-01T11:27:45;4.15;;;0.90;;
59127;SDS011;44912;52.754;5.994;2022-07-01T11:30:12;5.97;;;1.08;;
59127;SDS011;44912;52.754;5.994;2022-07-01T11:32:43;4.90;;;1.20;;
59127;SDS011;44912;52.754;5.994;2022-07-01T11:35:24;4.25;;;1.05;;
59127;SDS011;44912;52.754;5.994;2022-07-01T11:38:11;4.78;;;1.23;;
59127;SDS011;44912;52.754;5.994;2022-07-01T11:41:02;4.60;;;1.30;;
59127;SDS011;44912;52.754;5.994;2022-07-01T11:43:34;4.28;;;1.15;;
59127;SDS011;44912;52.754;5.994;2022-07-01T11:46:02;2.75;;;0.95;;
59127;SDS011;44912;52.754;5.994;2022-07-01T11:51:00;5.13;;;1.23;;
59127;SDS011;44912;52.754;5.994;2022-07-01T11:53:29;4.45;;;0.90;;
59127;SDS011;44912;52.754;5.994;2022-07-01T11:55:55;3.08;;;0.82;;
59127;SDS011;44912;52.754;5.994;2022-07-01T11:58:21;3.83;;;0.90;;
59127;SDS011;44912;52.754;5.994;2022-07-01T12:00:46;5.05;;;1.20;;
59127;SDS011;44912;52.754;5.994;2022-07-01T12:03:12;4.25;;;0.93;;
59127;SDS011;44912;52.754;5.994;2022-07-01T12:05:38;5.25;;;1.00;;
59127;SDS011;44912;52.754;5.994;2022-07-01T12:08:04;3.63;;;0.90;;
59127;SDS011;44912;52.754;5.994;2022-07-01T12:10:30;6.90;;;1.42;;
59127;SDS011;44912;52.754;5.994;2022-07-01T12:12:56;4.25;;;1.40;;
59127;SDS011;44912;52.754;5.994;2022-07-01T12:15:22;4.35;;;1.10;;
59127;SDS011;44912;52.754;5.994;2022-07-01T12:17:48;4.78;;;1.45;;
59127;SDS011;44912;52.754;5.994;2022-07-01T12:20:14;4.05;;;0.90;;
59127;SDS011;44912;52.754;5.994;2022-07-01T12:22:40;5.25;;;1.00;;
59127;SDS011;44912;52.754;5.994;2022-07-01T12:25:06;5.13;;;0.98;;
59127;SDS011;44912;52.754;5.994;2022-07-01T12:27:37;4.55;;;1.27;;
59127;SDS011;44912;52.754;5.994;2022-07-01T12:30:06;3.63;;;1.02;;
59127;SDS011;44912;52.754;5.994;2022-07-01T12:32:34;6.38;;;1.10;;
59127;SDS011;44912;52.754;5.994;2022-07-01T12:35:03;5.90;;;1.17;;
59127;SDS011;44912;52.754;5.994;2022-07-01T12:37:34;8.52;;;1.73;;
59127;SDS011;44912;52.754;5.994;2022-07-01T12:42:46;4.97;;;1.20;;
59127;SDS011;44912;52.754;5.994;2022-07-01T12:45:13;3.60;;;1.00;;
59127;SDS011;44912;52.754;5.994;2022-07-01T12:47:42;4.82;;;1.38;;
59127;SDS011;44912;52.754;5.994;2022-07-01T12:55:22;6.18;;;1.50;;
59127;SDS011;44912;52.754;5.994;2022-07-01T12:57:49;6.60;;;1.30;;
59127;SDS011;44912;52.754;5.994;2022-07-01T13:00:20;4.95;;;1.42;;
59127;SDS011;44912;52.754;5.994;2022-07-01T13:02:50;4.25;;;1.55;;
59127;SDS011;44912;52.754;5.994;2022-07-01T13:05:16;5.10;;;1.50;;
59127;SDS011;44912;52.754;5.994;2022-07-01T13:07:42;6.00;;;1.30;;
59127;SDS011;44912;52.754;5.994;2022-07-01T13:10:08;6.30;;;1.50;;
59127;SDS011;44912;52.754;5.994;2022-07-01T13:12:34;5.22;;;1.35;;
59127;SDS011;44912;52.754;5.994;2022-07-01T13:14:59;5.10;;;1.60;;
59127;SDS011;44912;52.754;5.994;2022-07-01T13:17:26;4.25;;;1.20;;
59127;SDS011;44912;52.754;5.994;2022-07-01T13:19:52;5.03;;;1.25;;
59127;SDS011;44912;52.754;5.994;2022-07-01T13:22:17;6.03;;;1.45;;
59127;SDS011;44912;52.754;5.994;2022-07-01T13:24:43;5.55;;;1.30;;
59127;SDS011;44912;52.754;5.994;2022-07-01T13:27:09;6.60;;;1.33;;
59127;SDS011;44912;52.754;5.994;2022-07-01T13:29:35;7.15;;;1.70;;
59127;SDS011;44912;52.754;5.994;2022-07-01T13:32:01;6.15;;;1.73;;
59127;SDS011;44912;52.754;5.994;2022-07-01T13:34:27;5.78;;;1.27;;
59127;SDS011;44912;52.754;5.994;2022-07-01T13:36:52;7.05;;;1.58;;
59127;SDS011;44912;52.754;5.994;2022-07-01T13:39:18;6.82;;;1.40;;
59127;SDS011;44912;52.754;5.994;2022-07-01T13:41:44;7.20;;;1.38;;
59127;SDS011;44912;52.754;5.994;2022-07-01T13:44:09;6.00;;;1.42;;
59127;SDS011;44912;52.754;5.994;2022-07-01T13:46:35;9.13;;;1.83;;
59127;SDS011;44912;52.754;5.994;2022-07-01T13:49:03;5.82;;;1.60;;
59127;SDS011;44912;52.754;5.994;2022-07-01T13:51:28;5.35;;;1.67;;
59127;SDS011;44912;52.754;5.994;2022-07-01T13:53:54;6.85;;;1.70;;
59127;SDS011;44912;52.754;5.994;2022-07-01T13:56:22;8.55;;;2.10;;
59127;SDS011;44912;52.754;5.994;2022-07-01T13:58:48;5.78;;;1.50;;
59127;SDS011;44912;52.754;5.994;2022-07-01T14:01:16;7.50;;;1.67;;
59127;SDS011;44912;52.754;5.994;2022-07-01T14:03:44;9.35;;;2.50;;
59127;SDS011;44912;52.754;5.994;2022-07-01T14:06:10;5.13;;;1.48;;
59127;SDS011;44912;52.754;5.994;2022-07-01T14:08:36;5.90;;;1.42;;
59127;SDS011;44912;52.754;5.994;2022-07-01T14:11:01;6.35;;;1.50;;
59127;SDS011;44912;52.754;5.994;2022-07-01T14:13:27;6.30;;;1.63;;
59127;SDS011;44912;52.754;5.994;2022-07-01T14:15:53;9.77;;;2.13;;
59127;SDS011;44912;52.754;5.994;2022-07-01T14:18:19;6.13;;;1.38;;
59127;SDS011;44912;52.754;5.994;2022-07-01T14:20:44;7.13;;;1.73;;
59127;SDS011;44912;52.754;5.994;2022-07-01T14:23:10;8.38;;;1.42;;
59127;SDS011;44912;52.754;5.994;2022-07-01T14:25:36;5.15;;;1.30;;
59127;SDS011;44912;52.754;5.994;2022-07-01T14:28:02;5.93;;;1.52;;
59127;SDS011;44912;52.754;5.994;2022-07-01T14:30:28;6.95;;;1.60;;
59127;SDS011;44912;52.754;5.994;2022-07-01T14:32:53;6.32;;;1.67;;
59127;SDS011;44912;52.754;5.994;2022-07-01T14:35:19;6.15;;;1.70;;
59127;SDS011;44912;52.754;5.994;2022-07-01T14:37:45;6.57;;;1.70;;
59127;SDS011;44912;52.754;5.994;2022-07-01T14:40:10;6.10;;;1.70;;
59127;SDS011;44912;52.754;5.994;2022-07-01T14:42:37;5.97;;;1.48;;
59127;SDS011;44912;52.754;5.994;2022-07-01T14:45:03;5.50;;;1.65;;
59127;SDS011;44912;52.754;5.994;2022-07-01T14:47:29;7.38;;;1.58;;
59127;SDS011;44912;52.754;5.994;2022-07-01T14:49:54;7.95;;;1.70;;
59127;SDS011;44912;52.754;5.994;2022-07-01T14:52:25;5.55;;;1.52;;
59127;SDS011;44912;52.754;5.994;2022-07-01T14:54:51;6.85;;;1.60;;
59127;SDS011;44912;52.754;5.994;2022-07-01T14:57:17;6.35;;;1.73;;
59127;SDS011;44912;52.754;5.994;2022-07-01T14:59:44;4.93;;;1.40;;